SP3VSS-13 Weather Reports


Display with metric or nautical units.
time (UTC)temp
F
wind
direction
speed
MPH
gust
MPH
rain 1hr
in
rain 24hr
in
rain mn
in
humidity
%
barometer
mb
20260504205545 75 0 0.0 0.0 0.00 0.00 0.00 43 1000.2
20260504204045 75 0 0.0 0.0 0.00 0.00 0.00 43 1000.2
20260504202543 75 0 0.0 0.0 0.00 0.00 0.00 43 1000.2
20260504195533 75 0 0.0 0.0 0.00 0.00 0.00 43 1000.2
20260504194032 75 0 0.0 0.0 0.00 0.00 0.00 43 1000.1
20260504192531 75 0 0.0 0.0 0.00 0.00 0.00 43 1000.1
20260504191030 75 0 0.0 0.0 0.00 0.00 0.00 43 1000.1
20260504185530 75 0 0.0 0.0 0.00 0.00 0.00 43 1000.1
20260504184028 75 0 0.0 0.0 0.00 0.00 0.00 43 1000.0
20260504182528 75 0 0.0 0.0 0.00 0.00 0.00 43 999.8
20260504181026 75 0 0.0 0.0 0.00 0.00 0.00 43 999.7
20260504175525 75 0 0.0 0.0 0.00 0.00 0.00 43 999.7
20260504174025 75 0 0.0 0.0 0.00 0.00 0.00 43 999.7
20260504172524 75 0 0.0 0.0 0.00 0.00 0.00 43 999.6
20260504171023 75 0 0.0 0.0 0.00 0.00 0.00 43 999.7
20260504151015 75 22 0.0 0.0 0.00 0.00 0.00 43 999.9
20260504141011 76 22 0.0 0.0 0.00 0.00 0.00 42 1000.1
20260504080948 66 22 0.0 0.0 0.00 0.00 0.00 49 1000.9
20260504045435 58 22 2.0 3.0 0.00 0.00 0.00 58 1000.4
20260504043934 58 180 0.0 0.0 0.00 0.00 0.00 58 1000.4
20260504042433 58 180 0.0 0.0 0.00 0.00 0.00 58 1000.3
20260504040933 67 180 0.0 0.0 0.00 0.00 0.00 40 1000.0
20260504035431 67 180 0.0 0.0 0.00 0.00 0.00 40 1000.0
20260504033931 67 180 0.0 0.0 0.00 0.00 0.00 40 999.8
20260504032429 67 180 0.0 0.0 0.00 0.00 0.00 40 999.8
20260504030928 67 180 0.0 0.0 0.00 0.00 0.00 40 999.7
20260504025427 67 180 0.0 0.0 0.00 0.00 0.00 40 999.8
20260504023926 67 180 0.0 0.0 0.00 0.00 0.00 40 999.7
20260504022425 67 180 0.0 0.0 0.00 0.00 0.00 40 999.8
20260504020923 67 180 0.0 0.0 0.00 0.00 0.00 40 999.9
20260504015422 67 180 0.0 0.0 0.00 0.00 0.00 40 999.9
20260504013921 67 180 0.0 0.0 0.00 0.00 0.00 40 1000.0
20260504012420 67 180 0.0 0.0 0.00 0.00 0.00 40 999.8
20260504010919 67 180 0.0 0.0 0.00 0.00 0.00 40 999.8
20260504005418 67 180 0.0 0.0 0.00 0.00 0.00 40 999.7
20260504003917 67 180 0.0 0.0 0.00 0.00 0.00 40 999.6
20260504002416 67 180 0.0 0.0 0.00 0.00 0.00 40 999.6
20260504000916 67 180 0.0 0.0 0.00 0.00 0.00 40 999.6
20260503235415 67 180 0.0 0.0 0.00 0.00 0.00 40 999.6
20260503233913 67 180 0.0 0.0 0.00 0.00 0.00 40 999.7
20260503232412 67 180 0.0 0.0 0.00 0.00 0.00 40 999.7
20260503230911 67 180 0.0 0.0 0.00 0.00 0.00 40 999.7
20260503225411 67 180 0.0 0.0 0.00 0.00 0.00 40 999.7
20260503223910 67 180 0.0 0.0 0.00 0.00 0.00 40 999.7
20260503222409 67 180 0.0 0.0 0.00 0.00 0.00 40 999.7
20260503220908 67 180 0.0 0.0 0.00 0.00 0.00 40 999.8
20260503215407 67 180 0.0 0.0 0.00 0.00 0.00 40 999.9
20260503213906 82 225 0.0 0.0 0.00 0.00 0.00 23 999.9
20260503212404 82 225 0.0 0.0 0.00 0.00 0.00 23 1000.0
20260503210903 82 225 0.0 0.0 0.00 0.00 0.00 23 1000.0